createdAt,value
2017-04-02T00:05:05.279Z,68.908
2017-04-02T00:08:00.256Z,70.860
2017-04-02T00:10:55.324Z,70.982
2017-04-02T00:13:50.187Z,71.187
2017-04-02T00:16:45.113Z,66.838
2017-04-02T00:19:40.158Z,68.618
2017-04-02T00:22:35.200Z,67.932
2017-04-02T00:25:30.336Z,69.833
2017-04-02T00:28:25.320Z,69.895
2017-04-02T00:31:20.331Z,70.083
2017-04-02T00:34:15.285Z,69.759
2017-04-02T00:37:10.175Z,70.388
2017-04-02T00:40:05.139Z,69.468
2017-04-02T00:43:01.708Z,70.127
2017-04-02T00:45:55.549Z,69.904
2017-04-02T00:48:50.599Z,69.383
2017-04-02T00:51:45.635Z,67.394
2017-04-02T00:54:40.575Z,70.312
2017-04-02T00:57:35.494Z,71.325
2017-04-02T01:00:30.416Z,69.998
2017-04-02T01:03:25.316Z,70.991
2017-04-02T01:06:20.315Z,70.591
2017-04-02T01:09:15.214Z,71.471
2017-04-02T01:15:05.012Z,71.263
2017-04-02T01:17:59.959Z,71.357
2017-04-02T01:20:54.950Z,70.997
2017-04-02T01:23:51.851Z,70.928
2017-04-02T01:26:45.124Z,70.558
2017-04-02T01:29:39.930Z,70.706
2017-04-02T01:32:34.984Z,70.381
2017-04-02T01:35:30.013Z,70.222
2017-04-02T01:38:24.900Z,70.365
2017-04-02T01:41:19.901Z,70.413
2017-04-02T01:44:16.632Z,70.692
2017-04-02T01:47:09.864Z,70.783
2017-04-02T01:50:04.854Z,71.057
2017-04-02T01:52:59.651Z,71.124
2017-04-02T01:55:56.319Z,70.575
2017-04-02T01:58:49.669Z,71.935
2017-04-02T02:01:44.707Z,72.291
2017-04-02T02:04:39.558Z,72.505
2017-04-02T02:07:35.015Z,73.212
2017-04-02T02:10:29.842Z,73.180
2017-04-02T02:13:24.833Z,72.422
2017-04-02T02:16:19.879Z,72.577
2017-04-02T02:19:14.730Z,73.198
2017-04-02T02:22:11.344Z,72.769
2017-04-02T02:25:04.547Z,73.815
2017-04-02T02:27:59.579Z,73.899
2017-04-02T02:30:54.552Z,74.195
2017-04-02T02:33:49.451Z,74.005
2017-04-02T02:36:46.075Z,74.548
2017-04-02T02:39:39.203Z,74.108
2017-04-02T02:42:34.138Z,74.719
2017-04-02T02:45:28.986Z,75.018
2017-04-02T02:48:24.006Z,72.568
2017-04-02T02:51:20.578Z,75.080
2017-04-02T02:54:13.954Z,75.300
2017-04-02T02:57:08.900Z,74.165
2017-04-02T03:00:03.834Z,72.371
2017-04-02T03:02:58.790Z,75.815
2017-04-02T03:05:53.725Z,75.500
2017-04-02T03:08:48.628Z,76.012
2017-04-02T03:11:43.648Z,75.973
2017-04-02T03:14:38.900Z,76.120
2017-04-02T03:17:33.840Z,76.628
2017-04-02T03:20:28.723Z,76.470
2017-04-02T03:23:23.730Z,77.162
2017-04-02T03:26:18.634Z,77.004
2017-04-02T03:29:13.601Z,76.896
2017-04-02T03:32:08.399Z,77.081
2017-04-02T03:35:03.396Z,77.566
2017-04-02T03:37:58.353Z,78.678
2017-04-02T03:40:53.282Z,77.254
2017-04-02T03:43:48.148Z,77.478
2017-04-02T03:46:43.184Z,77.487
2017-04-02T03:49:38.061Z,77.380
2017-04-02T03:52:33.001Z,79.705
2017-04-02T03:55:27.906Z,78.791
2017-04-02T03:58:23.112Z,78.494
2017-04-02T04:01:17.986Z,79.701
2017-04-02T04:04:12.914Z,79.841
2017-04-02T04:07:07.700Z,80.449
2017-04-02T04:10:02.693Z,81.100
2017-04-02T04:12:57.618Z,80.959
2017-04-02T04:15:52.438Z,81.198
2017-04-02T04:18:47.269Z,81.166
2017-04-02T04:21:42.159Z,81.505
2017-04-02T04:24:37.081Z,82.344
2017-04-02T04:27:31.930Z,82.646
2017-04-02T04:30:26.824Z,83.147
2017-04-02T04:33:21.619Z,83.098
2017-04-02T04:36:16.510Z,83.752
2017-04-02T04:39:11.431Z,83.352
2017-04-02T04:42:06.297Z,82.688
2017-04-02T04:45:01.055Z,83.086
2017-04-02T04:47:55.900Z,83.170
2017-04-02T04:50:50.795Z,82.529
2017-04-02T04:53:45.635Z,83.462
2017-04-02T04:56:40.427Z,83.382
2017-04-02T04:59:36.953Z,83.166
2017-04-02T05:02:31.826Z,83.271
2017-04-02T05:05:24.908Z,82.597
2017-04-02T05:08:19.813Z,82.577
2017-04-02T05:11:14.713Z,82.428
2017-04-02T05:14:11.269Z,82.160
2017-04-02T05:17:04.440Z,82.135
2017-04-02T05:19:59.337Z,81.095
2017-04-02T05:22:54.275Z,81.510
2017-04-02T05:25:49.144Z,81.590
2017-04-02T05:28:45.925Z,79.680
2017-04-02T05:31:39.002Z,78.500
2017-04-02T05:34:33.789Z,77.888
2017-04-02T05:37:28.788Z,78.292
2017-04-02T05:40:23.689Z,76.966
2017-04-02T05:43:18.560Z,76.963
2017-04-02T05:46:13.385Z,73.725
2017-04-02T05:49:08.222Z,75.131
2017-04-02T05:52:03.206Z,74.360
2017-04-02T05:54:59.868Z,74.766
2017-04-02T05:57:52.961Z,74.693
2017-04-02T06:00:47.894Z,72.899
2017-04-02T06:03:42.867Z,70.583
2017-04-02T06:06:37.901Z,71.455
2017-04-02T06:09:32.941Z,69.597
2017-04-02T06:12:27.945Z,66.944
2017-04-02T06:15:23.046Z,67.676
2017-04-02T06:18:17.999Z,66.213
2017-04-02T06:21:14.691Z,65.750
2017-04-02T06:24:08.004Z,64.814
2017-04-02T06:27:03.004Z,62.632
2017-04-02T06:29:58.056Z,59.686
2017-04-02T06:32:53.037Z,61.524
2017-04-02T06:35:47.824Z,63.561
2017-04-02T06:38:42.500Z,65.083
2017-04-02T06:41:37.227Z,67.261
2017-04-02T06:44:32.098Z,67.797
2017-04-02T06:47:26.767Z,67.525
2017-04-02T06:50:21.268Z,69.142
2017-04-02T06:53:15.853Z,69.372
2017-04-02T06:56:10.473Z,68.943
2017-04-02T06:59:05.099Z,69.401
2017-04-02T07:01:59.762Z,67.072
2017-04-02T07:04:54.460Z,64.366
2017-04-02T07:07:49.282Z,62.826
2017-04-02T07:10:44.339Z,53.720
2017-04-02T07:13:39.797Z,50.092
2017-04-02T07:16:34.763Z,52.504
2017-04-02T07:19:28.430Z,52.157
2017-04-02T07:22:21.877Z,53.125
2017-04-02T07:25:14.886Z,52.971
2017-04-02T07:28:08.444Z,52.292
2017-04-02T07:31:02.253Z,55.552
2017-04-02T07:33:56.182Z,55.649
2017-04-02T07:36:50.812Z,56.687
2017-04-02T07:39:45.759Z,56.612
2017-04-02T07:42:40.011Z,57.567
2017-04-02T07:45:34.788Z,58.688
2017-04-02T07:48:29.717Z,59.435
2017-04-02T07:51:24.735Z,60.161
2017-04-02T07:54:19.770Z,60.097
2017-04-02T07:57:14.824Z,60.536
2017-04-02T08:00:09.759Z,59.878
2017-04-02T08:03:04.816Z,59.287
2017-04-02T08:05:59.788Z,58.999
2017-04-02T08:08:54.745Z,59.302
2017-04-02T08:11:49.793Z,59.446
2017-04-02T08:14:44.878Z,59.304
2017-04-02T08:17:40.038Z,58.177
2017-04-02T08:20:37.162Z,54.899
2017-04-02T08:23:30.655Z,50.840
2017-04-02T08:26:26.126Z,48.984
2017-04-02T08:29:21.206Z,47.632
2017-04-02T08:32:16.376Z,44.907
2017-04-02T08:35:11.011Z,48.532
2017-04-02T08:38:06.134Z,44.635
2017-04-02T08:41:01.624Z,44.212
2017-04-02T08:43:57.316Z,46.250
2017-04-02T08:46:53.293Z,41.571
2017-04-02T08:49:49.076Z,43.918
2017-04-02T08:52:44.719Z,40.844
2017-04-02T08:55:40.101Z,41.112
2017-04-02T08:58:35.359Z,43.748
2017-04-02T09:01:30.304Z,42.724
2017-04-02T09:04:25.153Z,47.740
2017-04-02T09:07:19.989Z,46.977
2017-04-02T09:10:14.659Z,47.593
2017-04-02T09:13:09.647Z,47.329
2017-04-02T09:16:04.758Z,47.830
2017-04-02T09:18:59.664Z,48.387
2017-04-02T09:21:54.657Z,50.778
2017-04-02T09:24:49.834Z,49.260
2017-04-02T09:27:44.910Z,48.230
2017-04-02T09:30:39.512Z,46.883
2017-04-02T09:33:34.786Z,47.055
2017-04-02T09:36:29.403Z,48.640
2017-04-02T09:39:24.447Z,50.305
2017-04-02T09:42:19.657Z,51.900
2017-04-02T09:45:16.243Z,53.224
2017-04-02T09:48:09.381Z,54.479
2017-04-02T09:51:04.118Z,55.932
2017-04-02T09:53:59.103Z,57.038
2017-04-02T09:56:54.174Z,57.000
2017-04-02T09:59:49.328Z,56.132
2017-04-02T10:02:44.658Z,54.388
2017-04-02T10:05:39.791Z,52.146
2017-04-02T10:08:35.093Z,52.081
2017-04-02T10:11:30.001Z,51.738
2017-04-02T10:14:24.914Z,49.988
2017-04-02T10:17:20.463Z,49.817
2017-04-02T10:20:16.069Z,47.976
2017-04-02T10:23:11.630Z,45.958
2017-04-02T10:26:07.099Z,47.653
2017-04-02T10:29:02.071Z,49.390
2017-04-02T10:31:57.214Z,50.999
2017-04-02T10:34:52.421Z,52.980
2017-04-02T10:37:47.699Z,52.402
2017-04-02T10:40:43.089Z,51.291
2017-04-02T10:43:38.474Z,49.951
2017-04-02T10:46:34.014Z,50.130
2017-04-02T10:49:29.296Z,51.394
2017-04-02T10:52:24.625Z,50.803
2017-04-02T10:55:19.991Z,51.056
2017-04-02T10:58:15.418Z,49.351
2017-04-02T11:01:10.782Z,48.705
2017-04-02T11:04:05.974Z,49.709
2017-04-02T11:07:01.048Z,49.158
2017-04-02T11:09:55.737Z,49.225
2017-04-02T11:12:50.630Z,50.447
2017-04-02T11:15:45.918Z,50.415
2017-04-02T11:18:41.106Z,51.257
2017-04-02T11:21:36.187Z,52.967
2017-04-02T11:24:32.964Z,54.068
2017-04-02T11:27:26.134Z,54.222
2017-04-02T11:30:21.037Z,55.902
2017-04-02T11:33:15.450Z,56.117
2017-04-02T11:36:09.806Z,55.559
2017-04-02T11:39:04.486Z,55.372
2017-04-02T11:41:59.034Z,54.484
2017-04-02T11:44:54.350Z,54.881
2017-04-02T11:47:49.660Z,54.722
2017-04-02T11:50:44.065Z,53.392
2017-04-02T11:53:38.781Z,53.839
2017-04-02T11:56:33.926Z,53.718
2017-04-02T11:59:29.070Z,52.351
2017-04-02T12:02:24.334Z,52.433
2017-04-02T12:05:19.370Z,51.910
2017-04-02T12:08:14.084Z,51.863
2017-04-02T12:11:08.478Z,52.756
2017-04-02T12:14:02.556Z,54.891
2017-04-02T12:16:56.904Z,54.898
2017-04-02T12:19:51.553Z,56.327
2017-04-02T12:22:46.694Z,56.570
2017-04-02T12:25:41.606Z,56.499
2017-04-02T12:28:36.258Z,57.230
2017-04-02T12:31:30.986Z,56.360
2017-04-02T12:34:25.658Z,55.740
2017-04-02T12:37:20.463Z,54.738
2017-04-02T12:40:15.240Z,55.270
2017-04-02T12:43:10.140Z,54.374
2017-04-02T12:46:05.417Z,54.330
2017-04-02T12:49:00.557Z,54.204
2017-04-02T12:51:56.186Z,54.615
2017-04-02T12:54:48.863Z,53.391
2017-04-02T12:57:43.911Z,52.733
2017-04-02T13:00:39.254Z,52.572
2017-04-02T13:03:34.494Z,54.232
2017-04-02T13:06:29.864Z,52.517
2017-04-02T13:09:25.067Z,52.610
2017-04-02T13:12:20.332Z,52.216
2017-04-02T13:15:15.243Z,51.588
2017-04-02T13:18:09.638Z,52.352
2017-04-02T13:21:04.592Z,52.687
2017-04-02T13:24:00.464Z,52.633
2017-04-02T13:26:52.827Z,52.852
2017-04-02T13:29:46.985Z,52.943
2017-04-02T13:32:41.229Z,52.329
2017-04-02T13:35:36.249Z,52.976
2017-04-02T13:38:31.526Z,51.819
2017-04-02T13:41:26.915Z,52.655
2017-04-02T13:44:23.937Z,51.882
2017-04-02T13:47:17.494Z,52.607
2017-04-02T13:50:12.666Z,52.666
2017-04-02T13:53:09.523Z,53.677
2017-04-02T13:56:02.926Z,53.971
2017-04-02T13:58:58.137Z,54.775
2017-04-02T14:01:53.539Z,54.383
2017-04-02T14:04:48.645Z,54.388
2017-04-02T14:07:43.850Z,54.185
2017-04-02T14:10:38.987Z,55.250
2017-04-02T14:13:34.139Z,55.603
2017-04-02T14:16:29.229Z,54.228
2017-04-02T14:19:23.909Z,52.255
2017-04-02T14:22:18.846Z,51.390
2017-04-02T14:25:13.934Z,51.701
2017-04-02T14:28:08.988Z,51.411
2017-04-02T14:31:04.097Z,52.479
2017-04-02T14:33:59.307Z,52.350
2017-04-02T14:36:54.418Z,53.208
2017-04-02T14:39:49.564Z,53.453
2017-04-02T14:42:44.728Z,54.291
2017-04-02T14:45:39.973Z,54.548
2017-04-02T14:48:46.488Z,54.305
2017-04-02T14:51:37.027Z,55.398
2017-04-02T14:54:31.959Z,53.466
2017-04-02T14:57:27.199Z,53.745
2017-04-02T15:00:22.278Z,54.166
2017-04-02T15:03:17.410Z,54.275
2017-04-02T15:06:12.734Z,54.695
2017-04-02T15:09:07.840Z,54.799
2017-04-02T15:12:02.921Z,55.215
2017-04-02T15:14:58.060Z,54.660
2017-04-02T15:17:53.031Z,54.900
2017-04-02T15:20:48.057Z,55.088
2017-04-02T15:23:43.103Z,55.564
2017-04-02T15:26:38.172Z,56.549
2017-04-02T15:29:33.275Z,55.984
2017-04-02T15:32:28.325Z,56.594
2017-04-02T15:35:23.399Z,55.426
2017-04-02T15:38:18.224Z,55.517
2017-04-02T15:41:13.186Z,55.023
2017-04-02T15:44:08.165Z,56.198
2017-04-02T15:47:02.690Z,55.459
2017-04-02T15:49:57.845Z,55.252
2017-04-02T15:52:53.178Z,56.350
2017-04-02T15:55:47.991Z,55.847
2017-04-02T15:58:43.299Z,55.536
2017-04-02T16:01:38.358Z,55.298
2017-04-02T16:04:33.502Z,55.586
2017-04-02T16:07:28.536Z,56.845
2017-04-02T16:10:23.622Z,55.967
2017-04-02T16:13:18.664Z,56.333
2017-04-02T16:16:13.608Z,55.944
2017-04-02T16:19:08.003Z,58.046
2017-04-02T16:22:01.802Z,57.792
2017-04-02T16:24:55.741Z,56.889
2017-04-02T16:27:50.351Z,58.764
2017-04-02T16:30:44.157Z,57.780
2017-04-02T16:33:37.713Z,57.319
2017-04-02T16:36:33.418Z,59.920
2017-04-02T16:39:26.292Z,58.384
2017-04-02T16:42:20.478Z,60.607
2017-04-02T16:45:14.553Z,59.678
2017-04-02T16:48:09.064Z,60.187
2017-04-02T16:51:02.940Z,59.476
2017-04-02T16:53:56.954Z,59.821
2017-04-02T16:56:50.542Z,59.023
2017-04-02T16:59:46.393Z,59.229
2017-04-02T17:02:38.428Z,59.434
2017-04-02T17:05:33.123Z,57.795
2017-04-02T17:08:28.018Z,59.138
2017-04-02T17:11:22.925Z,59.276
2017-04-02T17:14:17.837Z,59.016
2017-04-02T17:17:12.615Z,59.933
2017-04-02T17:20:07.329Z,62.119
2017-04-02T17:23:02.288Z,60.611
2017-04-02T17:25:57.038Z,60.664
2017-04-02T17:28:51.654Z,60.874
2017-04-02T17:31:46.344Z,60.920
2017-04-02T17:34:40.929Z,60.561
2017-04-02T17:37:36.339Z,63.109
2017-04-02T17:40:31.215Z,62.130
2017-04-02T17:43:26.115Z,63.760
2017-04-02T17:46:20.977Z,63.824
2017-04-02T17:49:15.815Z,62.673
2017-04-02T17:52:10.687Z,64.561
2017-04-02T17:55:05.603Z,65.747
2017-04-02T17:58:00.653Z,64.535
2017-04-02T18:00:55.684Z,64.845
2017-04-02T18:03:50.789Z,65.303
2017-04-02T18:06:45.756Z,66.791
2017-04-02T18:09:40.749Z,67.499
2017-04-02T18:12:35.714Z,67.114
2017-04-02T18:15:30.758Z,67.597
2017-04-02T18:18:25.809Z,67.793
2017-04-02T18:21:20.733Z,66.785
2017-04-02T18:24:15.507Z,68.012
2017-04-02T18:27:10.265Z,68.358
2017-04-02T18:30:05.181Z,67.380
2017-04-02T18:32:59.984Z,68.212
2017-04-02T18:35:54.644Z,69.600
2017-04-02T18:38:49.444Z,68.244
2017-04-02T18:41:44.259Z,70.574
2017-04-02T18:44:39.083Z,70.573
2017-04-02T18:47:33.919Z,68.865
2017-04-02T18:50:28.707Z,70.406
2017-04-02T18:53:23.453Z,70.334
2017-04-02T18:56:18.239Z,71.465
2017-04-02T18:59:13.071Z,71.022
2017-04-02T19:02:07.970Z,70.907
2017-04-02T19:05:04.398Z,72.388
2017-04-02T19:07:57.436Z,72.800
2017-04-02T19:10:52.147Z,72.157
2017-04-02T19:13:46.779Z,72.070
2017-04-02T19:16:41.495Z,72.162
2017-04-02T19:19:36.196Z,71.580
2017-04-02T19:22:30.852Z,74.109
2017-04-02T19:25:25.741Z,73.509
2017-04-02T19:28:20.507Z,73.142
2017-04-02T19:31:15.175Z,73.127
2017-04-02T19:34:09.952Z,74.422
2017-04-02T19:37:04.576Z,73.416
2017-04-02T19:40:00.987Z,74.233
2017-04-02T19:42:53.934Z,74.498
2017-04-02T19:45:48.465Z,75.215
2017-04-02T19:48:43.023Z,75.703
2017-04-02T19:51:37.374Z,75.543
2017-04-02T19:54:31.743Z,76.695
2017-04-02T19:57:26.135Z,76.000
2017-04-02T20:00:20.591Z,75.453
2017-04-02T20:03:15.081Z,75.916
2017-04-02T20:06:09.543Z,76.186
2017-04-02T20:09:03.988Z,75.477
2017-04-02T20:11:58.287Z,76.262
2017-04-02T20:14:52.749Z,75.670
2017-04-02T20:17:47.061Z,74.418
2017-04-02T20:20:41.427Z,76.166
2017-04-02T20:23:35.784Z,75.623
2017-04-02T20:26:30.030Z,76.600
2017-04-02T20:29:24.412Z,76.639
2017-04-02T20:32:18.615Z,76.597
2017-04-02T20:35:14.797Z,77.610
2017-04-02T20:38:07.310Z,77.295
2017-04-02T20:41:01.683Z,78.315
2017-04-02T20:43:56.043Z,78.060
2017-04-02T20:46:50.261Z,78.910
2017-04-02T20:49:44.551Z,79.476
2017-04-02T20:52:38.791Z,79.055
2017-04-02T20:55:33.012Z,78.750
2017-04-02T20:58:27.280Z,78.041
2017-04-02T21:01:21.479Z,78.435
2017-04-02T21:04:15.772Z,78.690
2017-04-02T21:07:09.848Z,78.879
2017-04-02T21:10:04.101Z,78.073
2017-04-02T21:12:58.328Z,78.819
2017-04-02T21:15:52.581Z,77.766
2017-04-02T21:18:46.829Z,77.994
2017-04-02T21:21:41.052Z,78.453
2017-04-02T21:24:35.205Z,78.890
2017-04-02T21:27:31.294Z,78.946
2017-04-02T21:30:23.697Z,78.394
2017-04-02T21:33:17.965Z,76.885
2017-04-02T21:36:12.510Z,75.962
2017-04-02T21:39:06.871Z,75.978
2017-04-02T21:42:01.443Z,77.736
2017-04-02T21:44:55.892Z,75.925
2017-04-02T21:47:50.329Z,76.729
2017-04-02T21:50:46.492Z,76.449
2017-04-02T21:53:39.580Z,77.069
2017-04-02T21:56:34.106Z,77.183
2017-04-02T21:59:28.469Z,77.459
2017-04-02T22:02:22.920Z,79.020
2017-04-02T22:05:17.282Z,78.076
2017-04-02T22:08:13.409Z,77.556
2017-04-02T22:11:05.932Z,78.969
2017-04-02T22:14:00.335Z,79.554
2017-04-02T22:16:54.764Z,79.916
2017-04-02T22:19:49.138Z,80.494
2017-04-02T22:22:43.401Z,80.212
2017-04-02T22:25:37.813Z,81.352
2017-04-02T22:28:33.793Z,81.539
2017-04-02T22:31:26.387Z,81.527
2017-04-02T22:34:22.376Z,82.018
2017-04-02T22:37:14.903Z,81.634
2017-04-02T22:40:09.216Z,82.546
2017-04-02T22:43:03.505Z,82.585
2017-04-02T22:45:57.791Z,82.945
2017-04-02T22:48:52.067Z,82.659
2017-04-02T22:51:46.277Z,82.300
2017-04-02T22:54:40.628Z,81.982
2017-04-02T22:57:34.827Z,82.060
2017-04-02T23:00:31.211Z,81.825
2017-04-02T23:03:23.716Z,81.902
2017-04-02T23:06:18.108Z,82.305
2017-04-02T23:09:12.432Z,81.593
2017-04-02T23:12:06.631Z,82.607
2017-04-02T23:15:00.938Z,82.305
2017-04-02T23:17:55.817Z,83.031
2017-04-02T23:20:51.847Z,82.716
2017-04-02T23:23:44.528Z,83.272
2017-04-02T23:26:38.749Z,83.813
2017-04-02T23:29:33.032Z,84.307
2017-04-02T23:32:27.283Z,84.767
2017-04-02T23:35:21.467Z,84.706
2017-04-02T23:38:15.541Z,85.079
2017-04-02T23:41:09.787Z,85.482
2017-04-02T23:44:03.871Z,85.863
2017-04-02T23:46:59.387Z,85.502
2017-04-02T23:49:51.622Z,85.906
2017-04-02T23:52:45.638Z,85.929
2017-04-02T23:55:39.558Z,86.127
2017-04-02T23:58:33.581Z,86.024
